createdAt,value
2022-12-23T00:00:11.263Z,4.50
2022-12-23T00:02:56.821Z,4.20
2022-12-23T00:05:35.784Z,4.30
2022-12-23T00:08:10.159Z,4.50
2022-12-23T00:10:43.066Z,4.40
2022-12-23T00:13:33.032Z,4.20
2022-12-23T00:16:07.676Z,4.40
2022-12-23T00:18:40.591Z,4.40
2022-12-23T00:21:15.282Z,4.30
2022-12-23T00:23:49.177Z,4.70
2022-12-23T00:26:23.977Z,4.40
2022-12-23T00:28:58.919Z,4.40
2022-12-23T00:31:31.432Z,4.50
2022-12-23T00:34:03.689Z,4.80
2022-12-23T00:36:37.654Z,4.60
2022-12-23T00:39:35.573Z,4.70
2022-12-23T00:42:25.455Z,4.30
2022-12-23T00:45:15.987Z,4.60
2022-12-23T00:48:06.649Z,4.40
2022-12-23T00:50:41.013Z,4.50
2022-12-23T00:53:13.043Z,4.40
2022-12-23T00:55:46.195Z,3.90
2022-12-23T00:58:18.919Z,4.50
2022-12-23T01:01:08.826Z,4.20
2022-12-23T01:03:58.794Z,4.20
2022-12-23T01:06:30.853Z,3.80
2022-12-23T01:09:02.926Z,4.60
2022-12-23T01:11:34.986Z,4.20
2022-12-23T01:14:09.511Z,4.60
2022-12-23T01:16:42.090Z,4.30
2022-12-23T01:19:14.257Z,4.50
2022-12-23T01:21:46.324Z,4.30
2022-12-23T01:24:18.488Z,4.20
2022-12-23T01:26:50.563Z,4.60
2022-12-23T01:29:22.630Z,4.30
2022-12-23T01:31:54.755Z,4.40
2022-12-23T01:34:32.577Z,4.70
2022-12-23T01:37:08.559Z,4.20
2022-12-23T01:39:40.828Z,4.50
2022-12-23T01:42:33.165Z,4.10
2022-12-23T01:45:07.588Z,4.30
2022-12-23T01:47:43.647Z,4.20
2022-12-23T01:50:20.835Z,4.10
2022-12-23T01:53:03.098Z,4.30
2022-12-23T01:55:43.522Z,4.20
2022-12-23T01:58:20.791Z,3.60
2022-12-23T02:01:11.151Z,4.20
2022-12-23T02:03:44.067Z,4.60
2022-12-23T02:06:40.004Z,4.60
2022-12-23T02:09:20.173Z,3.60
2022-12-23T02:12:16.338Z,4.00
2022-12-23T02:15:20.743Z,4.10
2022-12-23T02:18:04.698Z,4.40
2022-12-23T02:20:58.018Z,4.30
2022-12-23T02:24:06.539Z,4.20
2022-12-23T02:27:05.959Z,3.80
2022-12-23T02:30:02.076Z,4.00
2022-12-23T02:32:44.691Z,3.80
2022-12-23T02:35:25.496Z,3.80
2022-12-23T02:38:03.884Z,4.00
2022-12-23T02:40:42.087Z,4.20
2022-12-23T02:43:18.768Z,4.50
2022-12-23T02:45:56.084Z,4.00
2022-12-23T02:48:36.633Z,4.20
2022-12-23T02:51:12.026Z,3.90
2022-12-23T02:53:49.145Z,4.70
2022-12-23T02:56:24.729Z,4.40
2022-12-23T03:01:33.072Z,3.80
2022-12-23T03:04:06.933Z,4.40
2022-12-23T03:06:41.398Z,4.10
2022-12-23T03:09:22.890Z,3.70
2022-12-23T03:12:02.089Z,4.00
2022-12-23T03:15:02.511Z,4.10
2022-12-23T03:17:44.212Z,4.50
2022-12-23T03:22:56.934Z,3.70
2022-12-23T03:25:32.781Z,4.10
2022-12-23T03:28:12.546Z,4.00
2022-12-23T03:30:49.017Z,3.80
2022-12-23T03:33:25.546Z,3.90
2022-12-23T03:36:05.017Z,4.00
2022-12-23T03:38:40.695Z,4.20
2022-12-23T03:41:18.057Z,4.20
2022-12-23T03:43:55.961Z,3.70
2022-12-23T03:46:32.800Z,3.90
2022-12-23T03:49:08.798Z,3.90
2022-12-23T03:51:46.599Z,4.10
2022-12-23T03:54:24.139Z,4.20
2022-12-23T03:57:02.815Z,4.00
2022-12-23T03:59:39.184Z,4.10
2022-12-23T04:02:16.944Z,3.70
2022-12-23T04:05:03.715Z,3.70
2022-12-23T04:07:39.652Z,3.80
2022-12-23T04:10:14.247Z,3.90
2022-12-23T04:12:46.991Z,3.90
2022-12-23T04:15:24.444Z,4.10
2022-12-23T04:17:58.261Z,4.20
2022-12-23T04:20:30.190Z,4.00
2022-12-23T04:23:02.286Z,4.00
2022-12-23T04:25:34.435Z,3.80
2022-12-23T04:28:07.037Z,3.80
2022-12-23T04:30:38.998Z,4.20
2022-12-23T04:33:13.570Z,4.10
2022-12-23T04:35:45.594Z,3.70
2022-12-23T04:38:17.562Z,4.20
2022-12-23T04:40:49.852Z,4.10
2022-12-23T04:43:21.891Z,3.70
2022-12-23T04:45:54.560Z,3.60
2022-12-23T04:48:26.639Z,4.20
2022-12-23T04:50:58.707Z,3.40
2022-12-23T04:53:30.716Z,3.90
2022-12-23T04:56:02.722Z,3.40
2022-12-23T04:58:34.817Z,3.50
2022-12-23T05:01:08.704Z,3.70
2022-12-23T05:03:41.746Z,3.40
2022-12-23T05:06:13.969Z,4.10
2022-12-23T05:08:45.943Z,3.60
2022-12-23T05:11:17.976Z,3.90
2022-12-23T05:13:49.951Z,3.50
2022-12-23T05:16:22.498Z,4.00
2022-12-23T05:18:54.548Z,4.00
2022-12-23T05:21:26.907Z,3.50
2022-12-23T05:23:59.354Z,4.00
2022-12-23T05:26:31.347Z,3.50
2022-12-23T05:29:03.313Z,3.30
2022-12-23T05:31:35.584Z,3.40
2022-12-23T05:34:07.755Z,3.90
2022-12-23T05:36:39.890Z,3.50
2022-12-23T05:39:11.953Z,3.50
2022-12-23T05:41:44.020Z,3.30
2022-12-23T05:44:16.089Z,3.40
2022-12-23T05:46:48.101Z,3.40
2022-12-23T05:49:20.638Z,3.60
2022-12-23T05:51:52.621Z,3.40
2022-12-23T05:54:24.667Z,3.10
2022-12-23T05:56:56.701Z,3.70
2022-12-23T05:59:31.635Z,3.60
2022-12-23T06:02:04.221Z,3.50
2022-12-23T06:04:36.510Z,3.50
2022-12-23T06:07:08.577Z,3.30
2022-12-23T06:09:40.548Z,3.40
2022-12-23T06:12:12.476Z,3.90
2022-12-23T06:14:44.571Z,3.20
2022-12-23T06:17:16.640Z,3.60
2022-12-23T06:19:48.707Z,3.70
2022-12-23T06:22:21.890Z,3.70
2022-12-23T06:24:54.269Z,3.40
2022-12-23T06:27:26.438Z,3.50
2022-12-23T06:29:58.521Z,3.70
2022-12-23T06:32:34.511Z,3.20
2022-12-23T06:35:11.828Z,3.50
2022-12-23T06:37:44.786Z,3.60
2022-12-23T06:40:17.313Z,3.20
2022-12-23T06:42:49.287Z,3.20
2022-12-23T06:45:21.359Z,3.40
2022-12-23T06:47:53.364Z,3.30
2022-12-23T06:50:25.480Z,3.40
2022-12-23T06:52:57.547Z,3.10
2022-12-23T06:55:29.825Z,3.40
2022-12-23T06:58:02.496Z,3.60
2022-12-23T07:00:34.588Z,3.60
2022-12-23T07:03:15.186Z,3.20
2022-12-23T07:05:51.558Z,3.30
2022-12-23T07:08:24.182Z,4.30
2022-12-23T14:31:32.069Z,6.80
2022-12-23T14:34:28.956Z,8.10
2022-12-23T14:37:32.882Z,7.60
2022-12-23T14:40:35.643Z,7.90
2022-12-23T14:43:33.263Z,7.20
2022-12-23T14:46:07.763Z,7.50
2022-12-23T14:49:39.672Z,6.40
2022-12-23T14:52:49.695Z,6.30
2022-12-23T14:55:47.232Z,7.00
2022-12-23T14:58:54.872Z,7.70
2022-12-23T15:01:38.718Z,6.40
2022-12-23T15:04:21.052Z,5.80
2022-12-23T15:06:56.365Z,6.00
2022-12-23T15:09:32.789Z,6.50
2022-12-23T15:12:21.124Z,6.80
2022-12-23T15:14:57.475Z,7.60
2022-12-23T15:17:32.065Z,6.20
2022-12-23T15:20:15.991Z,7.20
2022-12-23T15:22:49.907Z,8.10
2022-12-23T15:25:27.517Z,8.20
2022-12-23T15:28:02.797Z,7.80
2022-12-23T15:30:47.518Z,8.40
2022-12-23T15:36:22.998Z,8.50
2022-12-23T15:38:55.727Z,9.30
2022-12-23T15:41:28.697Z,9.70
2022-12-23T15:44:02.772Z,10.10
2022-12-23T15:46:42.051Z,9.00
2022-12-23T15:49:21.489Z,10.40
2022-12-23T15:52:07.771Z,10.30
2022-12-23T15:54:47.197Z,10.40
2022-12-23T15:57:24.363Z,10.30
2022-12-23T15:59:57.809Z,10.10
2022-12-23T16:03:00.536Z,10.20
2022-12-23T16:05:31.200Z,10.90
2022-12-23T16:08:29.044Z,10.00
2022-12-23T16:11:14.911Z,10.80
2022-12-23T16:14:06.635Z,11.00
2022-12-23T16:16:57.120Z,11.30
2022-12-23T16:19:58.073Z,15.00
2022-12-23T16:22:52.042Z,19.50
2022-12-23T16:25:48.439Z,13.20
2022-12-23T16:28:43.509Z,10.90
2022-12-23T16:31:23.798Z,15.40
2022-12-23T16:34:01.192Z,15.60
2022-12-23T16:36:39.086Z,13.80
2022-12-23T16:39:25.546Z,15.90
2022-12-23T16:42:07.564Z,43.80
2022-12-23T16:44:41.457Z,18.30
2022-12-23T16:47:20.095Z,18.70
2022-12-23T16:49:53.158Z,21.30
2022-12-23T16:52:25.861Z,24.90
2022-12-23T16:54:58.231Z,14.90
2022-12-23T16:57:30.780Z,13.00
2022-12-23T17:00:03.459Z,12.30
2022-12-23T17:02:36.277Z,13.50
2022-12-23T17:05:13.929Z,16.80
2022-12-23T17:07:46.857Z,25.30
2022-12-23T17:10:19.657Z,17.90
2022-12-23T17:12:52.889Z,15.50
2022-12-23T17:15:27.019Z,26.30
2022-12-23T17:17:59.747Z,13.20
2022-12-23T17:20:33.725Z,11.90
2022-12-23T17:23:07.625Z,15.80
2022-12-23T17:25:40.133Z,12.20
2022-12-23T17:28:13.604Z,11.20
2022-12-23T17:30:46.033Z,11.10
2022-12-23T17:33:20.674Z,11.70
2022-12-23T17:35:53.724Z,11.20
2022-12-23T17:38:27.629Z,13.00
2022-12-23T17:41:00.994Z,11.40
2022-12-23T17:43:33.823Z,17.60
2022-12-23T17:46:06.399Z,28.30
2022-12-23T17:48:38.872Z,25.80
2022-12-23T17:51:15.633Z,32.90
2022-12-23T17:53:55.128Z,21.50
2022-12-23T17:56:30.380Z,18.80
2022-12-23T17:59:02.870Z,17.90
2022-12-23T18:01:35.397Z,30.60
2022-12-23T18:04:07.984Z,34.70
2022-12-23T18:06:40.918Z,28.50
2022-12-23T18:09:13.223Z,18.40
2022-12-23T18:11:50.899Z,15.80
2022-12-23T18:14:28.176Z,16.30
2022-12-23T18:17:01.479Z,12.30
2022-12-23T18:19:34.679Z,16.20
2022-12-23T18:22:07.139Z,13.20
2022-12-23T18:24:39.489Z,22.10
2022-12-23T18:27:16.268Z,20.50
2022-12-23T18:29:49.482Z,15.30
2022-12-23T18:32:27.612Z,19.20
2022-12-23T18:34:59.949Z,20.20
2022-12-23T18:37:32.557Z,21.90
2022-12-23T18:40:07.158Z,16.00
2022-12-23T18:42:39.646Z,30.60
2022-12-23T18:45:26.042Z,28.80
2022-12-23T18:47:58.965Z,18.30
2022-12-23T18:50:32.514Z,15.30
2022-12-23T18:53:05.711Z,15.20
2022-12-23T18:55:39.334Z,13.40
2022-12-23T18:58:14.482Z,17.00
2022-12-23T19:00:47.925Z,21.80
2022-12-23T19:03:25.345Z,19.60
2022-12-23T19:06:06.710Z,18.90
2022-12-23T19:08:40.643Z,14.70
2022-12-23T19:11:18.543Z,17.20
2022-12-23T19:13:50.920Z,17.30
2022-12-23T19:16:23.829Z,23.50
2022-12-23T19:18:56.269Z,25.40
2022-12-23T19:21:28.884Z,18.30
2022-12-23T19:24:01.113Z,16.90
2022-12-23T19:26:33.411Z,47.70
2022-12-23T19:29:05.768Z,31.80
2022-12-23T19:31:38.665Z,23.90
2022-12-23T19:34:15.328Z,19.30
2022-12-23T19:36:48.673Z,20.80
2022-12-23T19:39:22.122Z,19.50
2022-12-23T19:41:55.360Z,15.80
2022-12-23T19:44:27.696Z,21.40
2022-12-23T19:47:00.686Z,45.50
2022-12-23T19:49:34.620Z,17.40
2022-12-23T19:52:07.410Z,17.50
2022-12-23T19:54:40.333Z,14.10
2022-12-23T19:57:12.838Z,15.60
2022-12-23T19:59:45.434Z,14.50
2022-12-23T20:02:20.354Z,15.10
2022-12-23T20:04:53.221Z,17.60
2022-12-23T20:07:25.781Z,13.50
2022-12-23T20:09:58.055Z,12.00
2022-12-23T20:12:30.251Z,17.30
2022-12-23T20:15:02.732Z,24.20
2022-12-23T20:17:35.093Z,23.10
2022-12-23T20:20:09.550Z,16.50
2022-12-23T20:22:41.815Z,16.00
2022-12-23T20:25:14.363Z,19.70
2022-12-23T20:27:46.944Z,24.00
2022-12-23T20:30:19.522Z,18.40
2022-12-23T20:32:52.117Z,18.60
2022-12-23T20:35:24.633Z,16.00
2022-12-23T20:37:57.315Z,15.80
2022-12-23T20:40:29.828Z,16.00
2022-12-23T20:43:02.277Z,14.40
2022-12-23T20:45:35.159Z,14.30
2022-12-23T20:48:08.344Z,14.60
2022-12-23T20:50:42.745Z,13.20
2022-12-23T20:53:15.279Z,15.50
2022-12-23T20:55:47.662Z,16.20
2022-12-23T20:58:37.747Z,19.60
2022-12-23T21:01:14.521Z,13.60
2022-12-23T21:03:46.920Z,13.90
2022-12-23T21:06:19.916Z,10.90
2022-12-23T21:08:55.901Z,10.80
2022-12-23T21:14:06.324Z,9.80
2022-12-23T21:16:40.792Z,11.20
2022-12-23T21:19:18.662Z,9.90
2022-12-23T21:21:52.200Z,9.10
2022-12-23T21:24:24.489Z,10.90
2022-12-23T21:26:57.465Z,12.40
2022-12-23T21:29:30.445Z,10.00
2022-12-23T21:32:02.909Z,9.20
2022-12-23T21:34:35.185Z,10.50
2022-12-23T21:37:07.307Z,10.00
2022-12-23T21:39:39.826Z,10.70
2022-12-23T21:42:12.212Z,10.60
2022-12-23T21:44:44.974Z,10.00
2022-12-23T21:47:17.489Z,12.70
2022-12-23T21:49:50.337Z,11.40
2022-12-23T21:52:23.326Z,11.30
2022-12-23T21:54:55.692Z,10.00
2022-12-23T21:57:28.246Z,10.70
2022-12-23T22:00:00.384Z,10.90
2022-12-23T22:02:33.135Z,10.30
2022-12-23T22:05:06.006Z,11.00
2022-12-23T22:07:39.088Z,10.10
2022-12-23T22:10:13.718Z,11.20
2022-12-23T22:12:45.783Z,11.80
2022-12-23T22:15:19.628Z,11.30
2022-12-23T22:17:52.714Z,10.90
2022-12-23T22:20:25.113Z,11.10
2022-12-23T22:22:57.420Z,10.70
2022-12-23T22:25:29.510Z,9.90
2022-12-23T22:28:03.008Z,14.20
2022-12-23T22:30:35.194Z,10.60
2022-12-23T22:33:08.655Z,10.00
2022-12-23T22:35:40.834Z,9.90
2022-12-23T22:38:13.018Z,8.70
2022-12-23T22:40:49.147Z,9.20
2022-12-23T22:43:22.224Z,8.70
2022-12-23T22:46:01.193Z,10.10
2022-12-23T22:48:33.676Z,8.70
2022-12-23T22:51:09.615Z,9.10
2022-12-23T22:53:42.529Z,8.60
2022-12-23T22:56:16.767Z,7.90
2022-12-23T22:58:49.374Z,6.70
2022-12-23T23:01:25.011Z,7.90
2022-12-23T23:03:59.557Z,7.20
2022-12-23T23:06:34.116Z,8.80
2022-12-23T23:09:07.897Z,8.40
2022-12-23T23:11:40.649Z,7.90
2022-12-23T23:14:13.600Z,8.10
2022-12-23T23:16:46.283Z,8.60
2022-12-23T23:19:20.807Z,9.10
2022-12-23T23:21:53.569Z,8.50
2022-12-23T23:24:31.064Z,9.90
2022-12-23T23:27:03.837Z,9.40
2022-12-23T23:29:36.135Z,11.80
2022-12-23T23:32:09.601Z,13.30
2022-12-23T23:34:42.297Z,12.70
2022-12-23T23:37:15.861Z,11.60
2022-12-23T23:39:48.655Z,11.30
2022-12-23T23:42:21.040Z,11.30
2022-12-23T23:44:53.384Z,11.90
2022-12-23T23:47:25.890Z,13.40
2022-12-23T23:49:58.120Z,13.20
2022-12-23T23:52:30.366Z,12.30
2022-12-23T23:55:02.597Z,13.70
2022-12-23T23:57:35.398Z,13.00
